sensor_id;sensor_type;location;lat;lon;timestamp;P1;durP1;ratioP1;P2;durP2;ratioP2
77018;SDS011;66044;53.142;17.962;2023-09-19T00:00:20;15.20;;;11.00;;
77018;SDS011;66044;53.142;17.962;2023-09-19T00:03:07;13.60;;;10.30;;
77018;SDS011;66044;53.142;17.962;2023-09-19T00:05:36;16.00;;;10.80;;
77018;SDS011;66044;53.142;17.962;2023-09-19T00:08:04;13.10;;;10.10;;
77018;SDS011;66044;53.142;17.962;2023-09-19T00:10:32;16.10;;;11.50;;
77018;SDS011;66044;53.142;17.962;2023-09-19T00:13:02;16.00;;;11.10;;
77018;SDS011;66044;53.142;17.962;2023-09-19T00:15:37;15.30;;;10.60;;
77018;SDS011;66044;53.142;17.962;2023-09-19T00:18:06;14.80;;;11.50;;
77018;SDS011;66044;53.142;17.962;2023-09-19T00:20:35;13.90;;;10.50;;
77018;SDS011;66044;53.142;17.962;2023-09-19T00:23:02;14.70;;;10.20;;
77018;SDS011;66044;53.142;17.962;2023-09-19T00:25:30;13.40;;;10.70;;
77018;SDS011;66044;53.142;17.962;2023-09-19T00:27:58;13.60;;;10.60;;
77018;SDS011;66044;53.142;17.962;2023-09-19T00:30:25;14.50;;;10.30;;
77018;SDS011;66044;53.142;17.962;2023-09-19T00:32:51;14.00;;;9.70;;
77018;SDS011;66044;53.142;17.962;2023-09-19T00:35:19;13.00;;;9.40;;
77018;SDS011;66044;53.142;17.962;2023-09-19T00:37:48;15.00;;;8.40;;
77018;SDS011;66044;53.142;17.962;2023-09-19T00:40:15;12.40;;;7.70;;
77018;SDS011;66044;53.142;17.962;2023-09-19T00:42:43;11.70;;;7.30;;
77018;SDS011;66044;53.142;17.962;2023-09-19T00:45:11;10.90;;;7.20;;
77018;SDS011;66044;53.142;17.962;2023-09-19T00:47:39;10.20;;;6.00;;
77018;SDS011;66044;53.142;17.962;2023-09-19T00:50:08;9.70;;;6.10;;
77018;SDS011;66044;53.142;17.962;2023-09-19T00:52:37;11.70;;;6.50;;
77018;SDS011;66044;53.142;17.962;2023-09-19T00:55:07;10.80;;;6.40;;
77018;SDS011;66044;53.142;17.962;2023-09-19T00:57:36;9.00;;;5.30;;
77018;SDS011;66044;53.142;17.962;2023-09-19T01:00:05;11.20;;;6.30;;
77018;SDS011;66044;53.142;17.962;2023-09-19T01:02:35;10.20;;;5.20;;
77018;SDS011;66044;53.142;17.962;2023-09-19T01:05:01;8.10;;;4.60;;
77018;SDS011;66044;53.142;17.962;2023-09-19T01:07:30;9.00;;;4.50;;
77018;SDS011;66044;53.142;17.962;2023-09-19T01:10:00;14.00;;;5.00;;
77018;SDS011;66044;53.142;17.962;2023-09-19T01:13:18;8.20;;;4.40;;
77018;SDS011;66044;53.142;17.962;2023-09-19T01:18:51;7.50;;;3.80;;
77018;SDS011;66044;53.142;17.962;2023-09-19T01:29:46;6.40;;;3.10;;
77018;SDS011;66044;53.142;17.962;2023-09-19T01:32:21;7.40;;;3.10;;
77018;SDS011;66044;53.142;17.962;2023-09-19T01:34:49;7.70;;;2.80;;
77018;SDS011;66044;53.142;17.962;2023-09-19T01:37:20;8.70;;;3.30;;
77018;SDS011;66044;53.142;17.962;2023-09-19T01:39:52;7.30;;;3.20;;
77018;SDS011;66044;53.142;17.962;2023-09-19T01:42:27;7.20;;;3.10;;
77018;SDS011;66044;53.142;17.962;2023-09-19T01:45:07;7.20;;;3.20;;
77018;SDS011;66044;53.142;17.962;2023-09-19T01:47:41;6.20;;;2.30;;
77018;SDS011;66044;53.142;17.962;2023-09-19T01:50:30;7.80;;;3.00;;
77018;SDS011;66044;53.142;17.962;2023-09-19T01:53:10;5.60;;;2.30;;
77018;SDS011;66044;53.142;17.962;2023-09-19T01:55:46;7.00;;;2.80;;
77018;SDS011;66044;53.142;17.962;2023-09-19T01:58:20;9.10;;;3.10;;
77018;SDS011;66044;53.142;17.962;2023-09-19T02:00:51;6.60;;;2.60;;
77018;SDS011;66044;53.142;17.962;2023-09-19T02:03:21;6.40;;;2.50;;
77018;SDS011;66044;53.142;17.962;2023-09-19T02:05:51;6.60;;;2.90;;
77018;SDS011;66044;53.142;17.962;2023-09-19T02:08:20;7.40;;;2.70;;
77018;SDS011;66044;53.142;17.962;2023-09-19T02:10:50;7.10;;;3.00;;
77018;SDS011;66044;53.142;17.962;2023-09-19T02:13:17;6.60;;;2.90;;
77018;SDS011;66044;53.142;17.962;2023-09-19T02:15:45;6.40;;;2.70;;
77018;SDS011;66044;53.142;17.962;2023-09-19T02:18:13;8.60;;;3.30;;
77018;SDS011;66044;53.142;17.962;2023-09-19T02:20:40;8.00;;;3.10;;
77018;SDS011;66044;53.142;17.962;2023-09-19T02:23:07;7.30;;;3.30;;
77018;SDS011;66044;53.142;17.962;2023-09-19T02:25:34;7.80;;;3.30;;
77018;SDS011;66044;53.142;17.962;2023-09-19T02:28:06;7.60;;;3.50;;
77018;SDS011;66044;53.142;17.962;2023-09-19T02:30:35;7.20;;;3.40;;
77018;SDS011;66044;53.142;17.962;2023-09-19T02:33:02;8.50;;;3.40;;
77018;SDS011;66044;53.142;17.962;2023-09-19T02:35:30;7.90;;;3.30;;
77018;SDS011;66044;53.142;17.962;2023-09-19T02:38:01;6.60;;;3.20;;
77018;SDS011;66044;53.142;17.962;2023-09-19T02:40:33;7.70;;;3.30;;
77018;SDS011;66044;53.142;17.962;2023-09-19T02:43:02;7.50;;;3.70;;
77018;SDS011;66044;53.142;17.962;2023-09-19T02:45:31;9.70;;;3.70;;
77018;SDS011;66044;53.142;17.962;2023-09-19T02:47:58;8.20;;;4.30;;
77018;SDS011;66044;53.142;17.962;2023-09-19T02:50:24;9.10;;;5.30;;
77018;SDS011;66044;53.142;17.962;2023-09-19T02:52:51;9.20;;;4.10;;
77018;SDS011;66044;53.142;17.962;2023-09-19T02:55:18;10.70;;;4.10;;
77018;SDS011;66044;53.142;17.962;2023-09-19T02:57:46;8.90;;;4.50;;
77018;SDS011;66044;53.142;17.962;2023-09-19T03:00:13;10.00;;;4.10;;
77018;SDS011;66044;53.142;17.962;2023-09-19T03:02:41;9.10;;;4.00;;
77018;SDS011;66044;53.142;17.962;2023-09-19T03:05:07;8.40;;;3.50;;
77018;SDS011;66044;53.142;17.962;2023-09-19T03:07:37;8.20;;;3.70;;
77018;SDS011;66044;53.142;17.962;2023-09-19T03:10:05;8.50;;;4.10;;
77018;SDS011;66044;53.142;17.962;2023-09-19T03:12:33;8.60;;;3.80;;
77018;SDS011;66044;53.142;17.962;2023-09-19T03:15:01;8.70;;;3.80;;
77018;SDS011;66044;53.142;17.962;2023-09-19T03:17:29;7.90;;;3.90;;
77018;SDS011;66044;53.142;17.962;2023-09-19T03:19:56;6.80;;;3.40;;
77018;SDS011;66044;53.142;17.962;2023-09-19T03:22:23;8.20;;;3.60;;
77018;SDS011;66044;53.142;17.962;2023-09-19T03:24:51;7.40;;;3.80;;
77018;SDS011;66044;53.142;17.962;2023-09-19T03:27:18;7.90;;;3.60;;
77018;SDS011;66044;53.142;17.962;2023-09-19T03:29:45;8.40;;;3.40;;
77018;SDS011;66044;53.142;17.962;2023-09-19T03:32:11;8.10;;;3.20;;
77018;SDS011;66044;53.142;17.962;2023-09-19T03:34:38;7.70;;;3.60;;
77018;SDS011;66044;53.142;17.962;2023-09-19T03:37:09;7.80;;;3.80;;
77018;SDS011;66044;53.142;17.962;2023-09-19T03:39:36;7.10;;;3.00;;
77018;SDS011;66044;53.142;17.962;2023-09-19T03:42:02;7.90;;;3.40;;
77018;SDS011;66044;53.142;17.962;2023-09-19T03:44:30;6.30;;;2.90;;
77018;SDS011;66044;53.142;17.962;2023-09-19T03:46:56;8.60;;;2.90;;
77018;SDS011;66044;53.142;17.962;2023-09-19T03:49:24;7.30;;;3.20;;
77018;SDS011;66044;53.142;17.962;2023-09-19T03:51:50;7.10;;;2.40;;
77018;SDS011;66044;53.142;17.962;2023-09-19T03:54:17;7.00;;;2.70;;
77018;SDS011;66044;53.142;17.962;2023-09-19T03:56:45;7.70;;;3.10;;
77018;SDS011;66044;53.142;17.962;2023-09-19T03:59:12;7.10;;;2.90;;
77018;SDS011;66044;53.142;17.962;2023-09-19T04:01:38;7.10;;;2.80;;
77018;SDS011;66044;53.142;17.962;2023-09-19T04:04:05;7.90;;;2.90;;
77018;SDS011;66044;53.142;17.962;2023-09-19T04:06:35;6.90;;;3.20;;
77018;SDS011;66044;53.142;17.962;2023-09-19T04:09:02;7.40;;;3.00;;
77018;SDS011;66044;53.142;17.962;2023-09-19T04:11:30;7.20;;;3.20;;
77018;SDS011;66044;53.142;17.962;2023-09-19T04:13:57;9.60;;;3.70;;
77018;SDS011;66044;53.142;17.962;2023-09-19T04:16:23;7.20;;;3.20;;
77018;SDS011;66044;53.142;17.962;2023-09-19T04:18:50;6.90;;;2.60;;
77018;SDS011;66044;53.142;17.962;2023-09-19T04:21:17;9.50;;;3.40;;
77018;SDS011;66044;53.142;17.962;2023-09-19T04:23:43;7.20;;;3.20;;
77018;SDS011;66044;53.142;17.962;2023-09-19T04:26:10;7.50;;;2.70;;
77018;SDS011;66044;53.142;17.962;2023-09-19T04:28:36;8.10;;;3.40;;
77018;SDS011;66044;53.142;17.962;2023-09-19T04:31:04;7.40;;;3.30;;
77018;SDS011;66044;53.142;17.962;2023-09-19T04:33:31;6.80;;;2.60;;
77018;SDS011;66044;53.142;17.962;2023-09-19T04:36:01;9.10;;;3.40;;
77018;SDS011;66044;53.142;17.962;2023-09-19T04:38:29;7.70;;;3.10;;
77018;SDS011;66044;53.142;17.962;2023-09-19T04:40:56;7.60;;;2.70;;
77018;SDS011;66044;53.142;17.962;2023-09-19T04:43:25;7.20;;;3.00;;
77018;SDS011;66044;53.142;17.962;2023-09-19T04:45:52;7.50;;;3.20;;
77018;SDS011;66044;53.142;17.962;2023-09-19T04:48:22;9.00;;;3.00;;
77018;SDS011;66044;53.142;17.962;2023-09-19T04:50:52;6.60;;;2.40;;
77018;SDS011;66044;53.142;17.962;2023-09-19T04:53:18;6.90;;;3.00;;
77018;SDS011;66044;53.142;17.962;2023-09-19T04:55:53;6.60;;;2.80;;
77018;SDS011;66044;53.142;17.962;2023-09-19T04:58:22;7.10;;;2.80;;
77018;SDS011;66044;53.142;17.962;2023-09-19T05:00:49;6.40;;;2.80;;
77018;SDS011;66044;53.142;17.962;2023-09-19T05:03:17;6.60;;;2.50;;
77018;SDS011;66044;53.142;17.962;2023-09-19T05:05:44;7.30;;;2.50;;
77018;SDS011;66044;53.142;17.962;2023-09-19T05:08:10;7.60;;;2.60;;
77018;SDS011;66044;53.142;17.962;2023-09-19T05:10:37;7.50;;;2.80;;
77018;SDS011;66044;53.142;17.962;2023-09-19T05:13:04;6.80;;;2.80;;
77018;SDS011;66044;53.142;17.962;2023-09-19T05:15:31;7.30;;;2.40;;
77018;SDS011;66044;53.142;17.962;2023-09-19T05:17:57;6.80;;;2.60;;
77018;SDS011;66044;53.142;17.962;2023-09-19T05:20:24;8.20;;;2.60;;
77018;SDS011;66044;53.142;17.962;2023-09-19T05:23:02;7.30;;;2.80;;
77018;SDS011;66044;53.142;17.962;2023-09-19T05:25:30;7.30;;;2.70;;
77018;SDS011;66044;53.142;17.962;2023-09-19T05:27:58;6.50;;;2.30;;
77018;SDS011;66044;53.142;17.962;2023-09-19T05:30:25;6.70;;;2.30;;
77018;SDS011;66044;53.142;17.962;2023-09-19T05:32:55;6.40;;;2.40;;
77018;SDS011;66044;53.142;17.962;2023-09-19T05:35:23;10.40;;;2.80;;
77018;SDS011;66044;53.142;17.962;2023-09-19T05:37:53;6.10;;;2.60;;
77018;SDS011;66044;53.142;17.962;2023-09-19T05:40:21;6.80;;;2.20;;
77018;SDS011;66044;53.142;17.962;2023-09-19T05:42:47;6.40;;;2.70;;
77018;SDS011;66044;53.142;17.962;2023-09-19T05:45:14;6.70;;;2.60;;
77018;SDS011;66044;53.142;17.962;2023-09-19T05:47:40;6.30;;;2.40;;
77018;SDS011;66044;53.142;17.962;2023-09-19T05:50:11;6.90;;;2.80;;
77018;SDS011;66044;53.142;17.962;2023-09-19T05:52:38;5.30;;;2.20;;
77018;SDS011;66044;53.142;17.962;2023-09-19T05:55:05;5.90;;;2.20;;
77018;SDS011;66044;53.142;17.962;2023-09-19T05:57:34;6.00;;;2.20;;
77018;SDS011;66044;53.142;17.962;2023-09-19T06:00:01;7.70;;;2.40;;
77018;SDS011;66044;53.142;17.962;2023-09-19T06:02:35;6.10;;;2.20;;
77018;SDS011;66044;53.142;17.962;2023-09-19T06:05:04;6.80;;;2.20;;
77018;SDS011;66044;53.142;17.962;2023-09-19T06:07:37;6.50;;;2.30;;
77018;SDS011;66044;53.142;17.962;2023-09-19T06:10:04;5.70;;;2.30;;
77018;SDS011;66044;53.142;17.962;2023-09-19T06:12:37;5.60;;;2.30;;
77018;SDS011;66044;53.142;17.962;2023-09-19T06:15:05;8.30;;;3.00;;
77018;SDS011;66044;53.142;17.962;2023-09-19T06:17:32;6.00;;;2.50;;
77018;SDS011;66044;53.142;17.962;2023-09-19T06:19:58;6.40;;;2.40;;
77018;SDS011;66044;53.142;17.962;2023-09-19T06:22:25;7.50;;;2.40;;
77018;SDS011;66044;53.142;17.962;2023-09-19T06:24:52;6.10;;;2.60;;
77018;SDS011;66044;53.142;17.962;2023-09-19T06:27:19;6.60;;;2.30;;
77018;SDS011;66044;53.142;17.962;2023-09-19T06:29:45;6.60;;;2.50;;
77018;SDS011;66044;53.142;17.962;2023-09-19T06:32:12;6.40;;;2.50;;
77018;SDS011;66044;53.142;17.962;2023-09-19T06:34:38;5.90;;;2.20;;
77018;SDS011;66044;53.142;17.962;2023-09-19T06:37:04;6.30;;;2.40;;
77018;SDS011;66044;53.142;17.962;2023-09-19T06:39:37;6.10;;;2.70;;
77018;SDS011;66044;53.142;17.962;2023-09-19T06:42:03;8.10;;;2.70;;
77018;SDS011;66044;53.142;17.962;2023-09-19T06:44:30;7.00;;;2.50;;
77018;SDS011;66044;53.142;17.962;2023-09-19T06:46:58;5.70;;;2.40;;
77018;SDS011;66044;53.142;17.962;2023-09-19T06:49:24;6.00;;;2.50;;
77018;SDS011;66044;53.142;17.962;2023-09-19T06:51:53;6.60;;;2.50;;
77018;SDS011;66044;53.142;17.962;2023-09-19T06:54:20;7.30;;;2.60;;
77018;SDS011;66044;53.142;17.962;2023-09-19T06:56:47;5.30;;;2.50;;
77018;SDS011;66044;53.142;17.962;2023-09-19T06:59:14;7.80;;;3.20;;
77018;SDS011;66044;53.142;17.962;2023-09-19T07:01:42;5.70;;;2.80;;
77018;SDS011;66044;53.142;17.962;2023-09-19T07:04:10;6.70;;;2.80;;
77018;SDS011;66044;53.142;17.962;2023-09-19T07:06:37;6.60;;;2.90;;
77018;SDS011;66044;53.142;17.962;2023-09-19T07:09:03;6.70;;;3.00;;
77018;SDS011;66044;53.142;17.962;2023-09-19T07:11:30;6.40;;;2.90;;
77018;SDS011;66044;53.142;17.962;2023-09-19T07:13:59;7.30;;;3.20;;
77018;SDS011;66044;53.142;17.962;2023-09-19T07:16:25;8.00;;;3.20;;
77018;SDS011;66044;53.142;17.962;2023-09-19T07:18:58;6.30;;;2.80;;
77018;SDS011;66044;53.142;17.962;2023-09-19T07:21:25;6.50;;;2.70;;
77018;SDS011;66044;53.142;17.962;2023-09-19T07:23:51;6.40;;;3.00;;
77018;SDS011;66044;53.142;17.962;2023-09-19T07:26:18;7.40;;;3.10;;
77018;SDS011;66044;53.142;17.962;2023-09-19T07:28:44;7.50;;;3.10;;
77018;SDS011;66044;53.142;17.962;2023-09-19T07:31:11;6.40;;;3.10;;
77018;SDS011;66044;53.142;17.962;2023-09-19T07:33:39;7.10;;;2.90;;
77018;SDS011;66044;53.142;17.962;2023-09-19T07:36:07;6.60;;;3.00;;
77018;SDS011;66044;53.142;17.962;2023-09-19T07:38:37;7.30;;;3.30;;
77018;SDS011;66044;53.142;17.962;2023-09-19T07:41:03;7.30;;;2.90;;
77018;SDS011;66044;53.142;17.962;2023-09-19T07:43:31;6.50;;;3.00;;
77018;SDS011;66044;53.142;17.962;2023-09-19T07:45:58;6.90;;;2.90;;
77018;SDS011;66044;53.142;17.962;2023-09-19T07:48:29;6.80;;;3.30;;
77018;SDS011;66044;53.142;17.962;2023-09-19T07:50:55;7.20;;;3.00;;
77018;SDS011;66044;53.142;17.962;2023-09-19T07:53:22;8.00;;;3.20;;
77018;SDS011;66044;53.142;17.962;2023-09-19T07:55:49;8.30;;;3.20;;
77018;SDS011;66044;53.142;17.962;2023-09-19T07:58:15;6.10;;;2.90;;
77018;SDS011;66044;53.142;17.962;2023-09-19T08:00:42;7.80;;;3.10;;
77018;SDS011;66044;53.142;17.962;2023-09-19T08:03:08;7.00;;;2.80;;
77018;SDS011;66044;53.142;17.962;2023-09-19T08:05:35;7.00;;;3.20;;
77018;SDS011;66044;53.142;17.962;2023-09-19T08:08:02;8.10;;;2.80;;
77018;SDS011;66044;53.142;17.962;2023-09-19T08:10:29;7.30;;;3.00;;
77018;SDS011;66044;53.142;17.962;2023-09-19T08:13:01;6.00;;;3.00;;
77018;SDS011;66044;53.142;17.962;2023-09-19T08:15:28;8.30;;;3.30;;
77018;SDS011;66044;53.142;17.962;2023-09-19T08:17:55;6.40;;;2.80;;
77018;SDS011;66044;53.142;17.962;2023-09-19T08:20:21;6.40;;;3.20;;
77018;SDS011;66044;53.142;17.962;2023-09-19T08:22:48;6.30;;;2.90;;
77018;SDS011;66044;53.142;17.962;2023-09-19T08:25:20;6.20;;;2.60;;
77018;SDS011;66044;53.142;17.962;2023-09-19T08:27:48;7.60;;;2.80;;
77018;SDS011;66044;53.142;17.962;2023-09-19T08:30:16;6.30;;;2.30;;
77018;SDS011;66044;53.142;17.962;2023-09-19T08:32:44;6.20;;;2.50;;
77018;SDS011;66044;53.142;17.962;2023-09-19T08:35:12;7.00;;;2.30;;
77018;SDS011;66044;53.142;17.962;2023-09-19T08:37:38;7.00;;;2.80;;
77018;SDS011;66044;53.142;17.962;2023-09-19T08:40:05;6.20;;;2.70;;
77018;SDS011;66044;53.142;17.962;2023-09-19T08:45:34;6.80;;;2.40;;
77018;SDS011;66044;53.142;17.962;2023-09-19T08:48:17;7.10;;;2.40;;
77018;SDS011;66044;53.142;17.962;2023-09-19T08:53:41;5.90;;;2.20;;
77018;SDS011;66044;53.142;17.962;2023-09-19T08:56:16;6.10;;;2.00;;
77018;SDS011;66044;53.142;17.962;2023-09-19T08:59:17;6.30;;;1.80;;
77018;SDS011;66044;53.142;17.962;2023-09-19T09:01:37;6.10;;;1.90;;
77018;SDS011;66044;53.142;17.962;2023-09-19T09:04:05;5.70;;;1.50;;
77018;SDS011;66044;53.142;17.962;2023-09-19T09:06:35;5.70;;;1.90;;
77018;SDS011;66044;53.142;17.962;2023-09-19T09:09:03;5.30;;;1.80;;
77018;SDS011;66044;53.142;17.962;2023-09-19T09:11:32;5.60;;;1.50;;
77018;SDS011;66044;53.142;17.962;2023-09-19T09:14:00;5.50;;;1.60;;
77018;SDS011;66044;53.142;17.962;2023-09-19T09:16:26;5.90;;;1.50;;
77018;SDS011;66044;53.142;17.962;2023-09-19T09:18:55;4.90;;;1.80;;
77018;SDS011;66044;53.142;17.962;2023-09-19T09:21:24;5.40;;;1.50;;
77018;SDS011;66044;53.142;17.962;2023-09-19T09:23:51;5.10;;;1.50;;
77018;SDS011;66044;53.142;17.962;2023-09-19T09:27:02;6.10;;;1.50;;
77018;SDS011;66044;53.142;17.962;2023-09-19T09:29:09;4.40;;;1.30;;
77018;SDS011;66044;53.142;17.962;2023-09-19T09:31:35;6.30;;;1.70;;
77018;SDS011;66044;53.142;17.962;2023-09-19T09:34:03;5.50;;;1.40;;
77018;SDS011;66044;53.142;17.962;2023-09-19T09:36:39;4.00;;;1.20;;
77018;SDS011;66044;53.142;17.962;2023-09-19T09:39:10;4.90;;;1.40;;
77018;SDS011;66044;53.142;17.962;2023-09-19T09:41:44;5.10;;;1.60;;
77018;SDS011;66044;53.142;17.962;2023-09-19T09:44:12;5.50;;;1.60;;
77018;SDS011;66044;53.142;17.962;2023-09-19T09:46:42;6.30;;;1.30;;
77018;SDS011;66044;53.142;17.962;2023-09-19T09:49:22;5.40;;;1.50;;
77018;SDS011;66044;53.142;17.962;2023-09-19T09:54:34;5.80;;;1.10;;
77018;SDS011;66044;53.142;17.962;2023-09-19T09:57:08;6.70;;;1.70;;
77018;SDS011;66044;53.142;17.962;2023-09-19T09:59:55;5.80;;;1.50;;
77018;SDS011;66044;53.142;17.962;2023-09-19T10:02:26;4.40;;;1.10;;
77018;SDS011;66044;53.142;17.962;2023-09-19T10:05:15;6.00;;;1.50;;
77018;SDS011;66044;53.142;17.962;2023-09-19T10:07:55;4.10;;;0.90;;
77018;SDS011;66044;53.142;17.962;2023-09-19T10:10:35;5.90;;;1.20;;
77018;SDS011;66044;53.142;17.962;2023-09-19T10:13:09;4.90;;;1.10;;
77018;SDS011;66044;53.142;17.962;2023-09-19T10:15:42;4.30;;;1.20;;
77018;SDS011;66044;53.142;17.962;2023-09-19T10:18:24;4.70;;;1.10;;
77018;SDS011;66044;53.142;17.962;2023-09-19T10:20:51;4.00;;;1.10;;
77018;SDS011;66044;53.142;17.962;2023-09-19T10:23:19;5.30;;;1.00;;
77018;SDS011;66044;53.142;17.962;2023-09-19T10:25:52;3.70;;;1.10;;
77018;SDS011;66044;53.142;17.962;2023-09-19T10:28:19;3.70;;;1.00;;
77018;SDS011;66044;53.142;17.962;2023-09-19T10:30:51;4.30;;;1.20;;
77018;SDS011;66044;53.142;17.962;2023-09-19T10:33:19;5.80;;;1.60;;
77018;SDS011;66044;53.142;17.962;2023-09-19T10:35:48;4.60;;;1.20;;
77018;SDS011;66044;53.142;17.962;2023-09-19T10:38:25;7.00;;;1.30;;
77018;SDS011;66044;53.142;17.962;2023-09-19T10:40:55;4.90;;;1.00;;
77018;SDS011;66044;53.142;17.962;2023-09-19T10:43:30;4.40;;;1.10;;
77018;SDS011;66044;53.142;17.962;2023-09-19T10:46:03;4.90;;;1.30;;
77018;SDS011;66044;53.142;17.962;2023-09-19T10:48:33;4.90;;;1.10;;
77018;SDS011;66044;53.142;17.962;2023-09-19T10:51:07;5.30;;;1.00;;
77018;SDS011;66044;53.142;17.962;2023-09-19T10:53:43;3.50;;;0.90;;
77018;SDS011;66044;53.142;17.962;2023-09-19T10:56:23;4.30;;;1.10;;
77018;SDS011;66044;53.142;17.962;2023-09-19T10:59:06;5.80;;;1.10;;
77018;SDS011;66044;53.142;17.962;2023-09-19T11:01:44;3.60;;;1.00;;
77018;SDS011;66044;53.142;17.962;2023-09-19T11:04:26;4.10;;;1.20;;
77018;SDS011;66044;53.142;17.962;2023-09-19T11:07:04;5.60;;;1.10;;
77018;SDS011;66044;53.142;17.962;2023-09-19T11:15:07;4.00;;;0.90;;
77018;SDS011;66044;53.142;17.962;2023-09-19T11:25:46;4.30;;;1.10;;
77018;SDS011;66044;53.142;17.962;2023-09-19T11:30:45;2.90;;;0.80;;
77018;SDS011;66044;53.142;17.962;2023-09-19T11:36:07;4.10;;;0.80;;
77018;SDS011;66044;53.142;17.962;2023-09-19T11:46:26;3.10;;;0.70;;
77018;SDS011;66044;53.142;17.962;2023-09-19T11:48:54;4.00;;;1.10;;
77018;SDS011;66044;53.142;17.962;2023-09-19T11:51:23;5.20;;;1.10;;
77018;SDS011;66044;53.142;17.962;2023-09-19T11:53:54;3.80;;;1.00;;
77018;SDS011;66044;53.142;17.962;2023-09-19T11:56:27;4.70;;;1.00;;
77018;SDS011;66044;53.142;17.962;2023-09-19T11:58:55;4.40;;;0.80;;
77018;SDS011;66044;53.142;17.962;2023-09-19T12:01:24;6.70;;;1.20;;
77018;SDS011;66044;53.142;17.962;2023-09-19T12:03:56;4.10;;;1.00;;
77018;SDS011;66044;53.142;17.962;2023-09-19T12:06:24;6.20;;;1.10;;
77018;SDS011;66044;53.142;17.962;2023-09-19T12:08:52;5.50;;;1.10;;
77018;SDS011;66044;53.142;17.962;2023-09-19T12:11:27;3.30;;;0.80;;
77018;SDS011;66044;53.142;17.962;2023-09-19T12:13:59;3.80;;;0.70;;
77018;SDS011;66044;53.142;17.962;2023-09-19T12:16:30;4.30;;;0.80;;
77018;SDS011;66044;53.142;17.962;2023-09-19T12:18:57;4.60;;;1.00;;
77018;SDS011;66044;53.142;17.962;2023-09-19T12:21:24;5.50;;;1.20;;
77018;SDS011;66044;53.142;17.962;2023-09-19T12:24:13;3.60;;;0.80;;
77018;SDS011;66044;53.142;17.962;2023-09-19T12:29:16;6.00;;;1.00;;
77018;SDS011;66044;53.142;17.962;2023-09-19T12:31:51;3.60;;;0.90;;
77018;SDS011;66044;53.142;17.962;2023-09-19T12:34:20;4.50;;;0.90;;
77018;SDS011;66044;53.142;17.962;2023-09-19T12:36:48;4.40;;;1.10;;
77018;SDS011;66044;53.142;17.962;2023-09-19T12:39:24;5.30;;;0.90;;
77018;SDS011;66044;53.142;17.962;2023-09-19T12:41:51;5.20;;;1.10;;
77018;SDS011;66044;53.142;17.962;2023-09-19T12:44:19;4.80;;;0.90;;
77018;SDS011;66044;53.142;17.962;2023-09-19T12:46:46;4.00;;;1.00;;
77018;SDS011;66044;53.142;17.962;2023-09-19T12:49:16;6.30;;;1.00;;
77018;SDS011;66044;53.142;17.962;2023-09-19T12:51:46;3.00;;;0.80;;
77018;SDS011;66044;53.142;17.962;2023-09-19T12:54:14;4.10;;;0.70;;
77018;SDS011;66044;53.142;17.962;2023-09-19T12:56:45;3.80;;;0.80;;
77018;SDS011;66044;53.142;17.962;2023-09-19T12:59:14;6.20;;;1.20;;
77018;SDS011;66044;53.142;17.962;2023-09-19T13:01:41;4.70;;;1.10;;
77018;SDS011;66044;53.142;17.962;2023-09-19T13:04:20;4.30;;;0.80;;
77018;SDS011;66044;53.142;17.962;2023-09-19T13:06:55;4.30;;;0.90;;
77018;SDS011;66044;53.142;17.962;2023-09-19T13:09:27;5.10;;;1.10;;
77018;SDS011;66044;53.142;17.962;2023-09-19T13:12:05;4.20;;;1.30;;
77018;SDS011;66044;53.142;17.962;2023-09-19T13:15:08;8.30;;;1.10;;
77018;SDS011;66044;53.142;17.962;2023-09-19T13:17:43;4.90;;;1.20;;
77018;SDS011;66044;53.142;17.962;2023-09-19T13:20:21;4.50;;;1.20;;
77018;SDS011;66044;53.142;17.962;2023-09-19T13:22:53;4.30;;;1.10;;
77018;SDS011;66044;53.142;17.962;2023-09-19T13:25:26;4.50;;;1.10;;
77018;SDS011;66044;53.142;17.962;2023-09-19T13:27:56;3.70;;;0.90;;
77018;SDS011;66044;53.142;17.962;2023-09-19T13:30:24;4.40;;;1.10;;
77018;SDS011;66044;53.142;17.962;2023-09-19T13:33:08;5.00;;;1.20;;
77018;SDS011;66044;53.142;17.962;2023-09-19T13:35:39;3.80;;;1.10;;
77018;SDS011;66044;53.142;17.962;2023-09-19T13:38:07;4.70;;;1.10;;
77018;SDS011;66044;53.142;17.962;2023-09-19T13:40:40;4.30;;;1.20;;
77018;SDS011;66044;53.142;17.962;2023-09-19T13:43:10;5.60;;;1.40;;
77018;SDS011;66044;53.142;17.962;2023-09-19T13:45:40;5.80;;;1.20;;
77018;SDS011;66044;53.142;17.962;2023-09-19T13:48:10;5.20;;;1.30;;
77018;SDS011;66044;53.142;17.962;2023-09-19T13:50:39;4.70;;;1.30;;
77018;SDS011;66044;53.142;17.962;2023-09-19T13:53:08;5.50;;;1.40;;
77018;SDS011;66044;53.142;17.962;2023-09-19T13:55:35;5.00;;;1.20;;
77018;SDS011;66044;53.142;17.962;2023-09-19T13:58:03;6.40;;;1.30;;
77018;SDS011;66044;53.142;17.962;2023-09-19T14:00:32;4.50;;;1.20;;
77018;SDS011;66044;53.142;17.962;2023-09-19T14:03:01;4.60;;;1.20;;
77018;SDS011;66044;53.142;17.962;2023-09-19T14:05:30;5.70;;;1.30;;
77018;SDS011;66044;53.142;17.962;2023-09-19T14:07:57;4.40;;;1.40;;
77018;SDS011;66044;53.142;17.962;2023-09-19T14:10:25;6.30;;;1.60;;
77018;SDS011;66044;53.142;17.962;2023-09-19T14:12:56;5.40;;;1.20;;
77018;SDS011;66044;53.142;17.962;2023-09-19T14:15:25;5.20;;;1.40;;
77018;SDS011;66044;53.142;17.962;2023-09-19T14:17:56;6.80;;;1.50;;
77018;SDS011;66044;53.142;17.962;2023-09-19T14:20:23;4.40;;;1.20;;
77018;SDS011;66044;53.142;17.962;2023-09-19T14:22:50;5.70;;;1.30;;
77018;SDS011;66044;53.142;17.962;2023-09-19T14:25:16;5.40;;;1.30;;
77018;SDS011;66044;53.142;17.962;2023-09-19T14:27:43;5.20;;;1.50;;
77018;SDS011;66044;53.142;17.962;2023-09-19T14:30:10;4.80;;;1.40;;
77018;SDS011;66044;53.142;17.962;2023-09-19T14:32:36;5.20;;;1.30;;
77018;SDS011;66044;53.142;17.962;2023-09-19T14:35:04;5.10;;;1.50;;
77018;SDS011;66044;53.142;17.962;2023-09-19T14:37:31;6.00;;;1.50;;
77018;SDS011;66044;53.142;17.962;2023-09-19T14:39:57;6.20;;;1.40;;
77018;SDS011;66044;53.142;17.962;2023-09-19T14:42:24;5.60;;;1.50;;
77018;SDS011;66044;53.142;17.962;2023-09-19T14:44:50;5.80;;;1.30;;
77018;SDS011;66044;53.142;17.962;2023-09-19T14:47:17;7.10;;;1.60;;
77018;SDS011;66044;53.142;17.962;2023-09-19T14:49:43;4.60;;;1.20;;
77018;SDS011;66044;53.142;17.962;2023-09-19T14:52:11;5.50;;;1.70;;
77018;SDS011;66044;53.142;17.962;2023-09-19T14:54:38;5.50;;;1.60;;
77018;SDS011;66044;53.142;17.962;2023-09-19T14:57:07;4.90;;;1.40;;
77018;SDS011;66044;53.142;17.962;2023-09-19T14:59:35;5.30;;;1.40;;
77018;SDS011;66044;53.142;17.962;2023-09-19T15:02:03;5.00;;;1.40;;
77018;SDS011;66044;53.142;17.962;2023-09-19T15:04:30;5.00;;;1.40;;
77018;SDS011;66044;53.142;17.962;2023-09-19T15:06:57;5.20;;;1.70;;
77018;SDS011;66044;53.142;17.962;2023-09-19T15:09:24;5.70;;;1.30;;
77018;SDS011;66044;53.142;17.962;2023-09-19T15:11:52;4.80;;;1.30;;
77018;SDS011;66044;53.142;17.962;2023-09-19T15:14:19;5.50;;;1.40;;
77018;SDS011;66044;53.142;17.962;2023-09-19T15:16:47;5.50;;;1.80;;
77018;SDS011;66044;53.142;17.962;2023-09-19T15:19:14;5.20;;;1.70;;
77018;SDS011;66044;53.142;17.962;2023-09-19T15:21:41;5.20;;;1.60;;
77018;SDS011;66044;53.142;17.962;2023-09-19T15:24:08;5.00;;;1.30;;
77018;SDS011;66044;53.142;17.962;2023-09-19T15:26:36;5.00;;;1.60;;
77018;SDS011;66044;53.142;17.962;2023-09-19T15:29:06;5.70;;;1.70;;
77018;SDS011;66044;53.142;17.962;2023-09-19T15:31:34;5.20;;;1.40;;
77018;SDS011;66044;53.142;17.962;2023-09-19T15:34:02;6.90;;;2.00;;
77018;SDS011;66044;53.142;17.962;2023-09-19T15:36:30;6.20;;;1.90;;